sensor_id;sensor_type;location;lat;lon;timestamp;P1;durP1;ratioP1;P2;durP2;ratioP2
47758;SDS011;33520;55.122;35.582;2023-02-01T00:01:56;8.18;;;4.35;;
47758;SDS011;33520;55.122;35.582;2023-02-01T00:04:22;8.82;;;4.45;;
47758;SDS011;33520;55.122;35.582;2023-02-01T00:06:48;8.50;;;4.72;;
47758;SDS011;33520;55.122;35.582;2023-02-01T00:09:15;9.80;;;4.88;;
47758;SDS011;33520;55.122;35.582;2023-02-01T00:11:41;8.02;;;4.13;;
47758;SDS011;33520;55.122;35.582;2023-02-01T00:14:07;6.95;;;4.07;;
47758;SDS011;33520;55.122;35.582;2023-02-01T00:16:33;7.95;;;4.25;;
47758;SDS011;33520;55.122;35.582;2023-02-01T00:19:33;11.25;;;5.30;;
47758;SDS011;33520;55.122;35.582;2023-02-01T00:21:52;8.80;;;5.25;;
47758;SDS011;33520;55.122;35.582;2023-02-01T00:24:18;7.22;;;4.40;;
47758;SDS011;33520;55.122;35.582;2023-02-01T00:26:45;9.18;;;5.18;;
47758;SDS011;33520;55.122;35.582;2023-02-01T00:29:12;10.50;;;4.68;;
47758;SDS011;33520;55.122;35.582;2023-02-01T00:31:40;11.02;;;4.30;;
47758;SDS011;33520;55.122;35.582;2023-02-01T00:36:34;9.85;;;4.50;;
47758;SDS011;33520;55.122;35.582;2023-02-01T00:39:00;6.38;;;3.75;;
47758;SDS011;33520;55.122;35.582;2023-02-01T00:41:26;9.35;;;5.53;;
47758;SDS011;33520;55.122;35.582;2023-02-01T00:43:52;9.77;;;5.03;;
47758;SDS011;33520;55.122;35.582;2023-02-01T00:46:19;8.77;;;4.47;;
47758;SDS011;33520;55.122;35.582;2023-02-01T00:48:47;10.07;;;5.28;;
47758;SDS011;33520;55.122;35.582;2023-02-01T00:51:14;9.90;;;4.63;;
47758;SDS011;33520;55.122;35.582;2023-02-01T00:53:44;11.20;;;4.57;;
47758;SDS011;33520;55.122;35.582;2023-02-01T00:56:11;8.93;;;4.82;;
47758;SDS011;33520;55.122;35.582;2023-02-01T00:58:37;8.70;;;5.20;;
47758;SDS011;33520;55.122;35.582;2023-02-01T01:01:08;9.32;;;4.55;;
47758;SDS011;33520;55.122;35.582;2023-02-01T01:03:35;12.57;;;5.22;;
47758;SDS011;33520;55.122;35.582;2023-02-01T01:06:07;7.72;;;4.05;;
47758;SDS011;33520;55.122;35.582;2023-02-01T01:08:35;8.18;;;4.93;;
47758;SDS011;33520;55.122;35.582;2023-02-01T01:11:09;9.00;;;4.32;;
47758;SDS011;33520;55.122;35.582;2023-02-01T01:13:37;8.63;;;4.47;;
47758;SDS011;33520;55.122;35.582;2023-02-01T01:16:05;8.65;;;4.32;;
47758;SDS011;33520;55.122;35.582;2023-02-01T01:18:32;9.20;;;4.68;;
47758;SDS011;33520;55.122;35.582;2023-02-01T01:23:25;7.90;;;4.03;;
47758;SDS011;33520;55.122;35.582;2023-02-01T01:25:51;6.68;;;4.00;;
47758;SDS011;33520;55.122;35.582;2023-02-01T01:28:19;7.45;;;4.22;;
47758;SDS011;33520;55.122;35.582;2023-02-01T01:30:45;8.55;;;4.75;;
47758;SDS011;33520;55.122;35.582;2023-02-01T01:33:12;9.63;;;4.15;;
47758;SDS011;33520;55.122;35.582;2023-02-01T01:35:38;7.88;;;4.18;;
47758;SDS011;33520;55.122;35.582;2023-02-01T01:38:04;7.38;;;4.53;;
47758;SDS011;33520;55.122;35.582;2023-02-01T01:40:31;9.05;;;5.03;;
47758;SDS011;33520;55.122;35.582;2023-02-01T01:42:57;8.82;;;4.63;;
47758;SDS011;33520;55.122;35.582;2023-02-01T01:45:26;10.55;;;4.93;;
47758;SDS011;33520;55.122;35.582;2023-02-01T01:47:55;8.65;;;4.90;;
47758;SDS011;33520;55.122;35.582;2023-02-01T01:50:29;8.05;;;4.65;;
47758;SDS011;33520;55.122;35.582;2023-02-01T01:52:58;9.30;;;4.60;;
47758;SDS011;33520;55.122;35.582;2023-02-01T01:55:27;10.18;;;5.00;;
47758;SDS011;33520;55.122;35.582;2023-02-01T01:58:05;10.38;;;5.32;;
47758;SDS011;33520;55.122;35.582;2023-02-01T02:00:34;9.93;;;5.18;;
47758;SDS011;33520;55.122;35.582;2023-02-01T02:05:34;9.93;;;5.28;;
47758;SDS011;33520;55.122;35.582;2023-02-01T02:08:01;10.35;;;5.43;;
47758;SDS011;33520;55.122;35.582;2023-02-01T02:10:27;10.15;;;5.75;;
47758;SDS011;33520;55.122;35.582;2023-02-01T02:13:12;8.75;;;4.85;;
47758;SDS011;33520;55.122;35.582;2023-02-01T02:15:41;9.02;;;5.35;;
47758;SDS011;33520;55.122;35.582;2023-02-01T02:18:15;9.05;;;4.80;;
47758;SDS011;33520;55.122;35.582;2023-02-01T02:32:44;9.15;;;4.80;;
47758;SDS011;33520;55.122;35.582;2023-02-01T02:38:19;11.60;;;6.60;;
47758;SDS011;33520;55.122;35.582;2023-02-01T02:43:27;11.10;;;5.75;;
47758;SDS011;33520;55.122;35.582;2023-02-01T02:46:34;10.48;;;4.85;;
47758;SDS011;33520;55.122;35.582;2023-02-01T02:49:34;12.35;;;5.80;;
47758;SDS011;33520;55.122;35.582;2023-02-01T02:52:15;12.02;;;6.30;;
47758;SDS011;33520;55.122;35.582;2023-02-01T02:55:03;13.43;;;6.13;;
47758;SDS011;33520;55.122;35.582;2023-02-01T02:57:36;12.10;;;6.75;;
47758;SDS011;33520;55.122;35.582;2023-02-01T03:00:24;10.32;;;5.70;;
47758;SDS011;33520;55.122;35.582;2023-02-01T03:03:12;14.63;;;6.70;;
47758;SDS011;33520;55.122;35.582;2023-02-01T03:05:57;12.07;;;6.85;;
47758;SDS011;33520;55.122;35.582;2023-02-01T03:08:25;12.48;;;6.20;;
47758;SDS011;33520;55.122;35.582;2023-02-01T03:11:05;13.93;;;6.47;;
47758;SDS011;33520;55.122;35.582;2023-02-01T03:16:22;13.05;;;6.65;;
47758;SDS011;33520;55.122;35.582;2023-02-01T03:24:23;13.20;;;6.57;;
47758;SDS011;33520;55.122;35.582;2023-02-01T03:27:22;16.13;;;7.75;;
47758;SDS011;33520;55.122;35.582;2023-02-01T03:29:52;13.25;;;7.10;;
47758;SDS011;33520;55.122;35.582;2023-02-01T03:32:39;12.70;;;6.82;;
47758;SDS011;33520;55.122;35.582;2023-02-01T03:35:36;17.20;;;7.93;;
47758;SDS011;33520;55.122;35.582;2023-02-01T03:38:25;15.82;;;6.90;;
47758;SDS011;33520;55.122;35.582;2023-02-01T03:41:40;15.90;;;6.97;;
47758;SDS011;33520;55.122;35.582;2023-02-01T03:43:57;12.68;;;6.88;;
47758;SDS011;33520;55.122;35.582;2023-02-01T03:46:30;13.45;;;7.05;;
47758;SDS011;33520;55.122;35.582;2023-02-01T03:49:03;14.43;;;7.03;;
47758;SDS011;33520;55.122;35.582;2023-02-01T03:51:33;15.02;;;7.07;;
47758;SDS011;33520;55.122;35.582;2023-02-01T03:54:02;14.60;;;6.95;;
47758;SDS011;33520;55.122;35.582;2023-02-01T03:56:29;15.40;;;6.68;;
47758;SDS011;33520;55.122;35.582;2023-02-01T03:58:57;14.10;;;7.10;;
47758;SDS011;33520;55.122;35.582;2023-02-01T04:01:32;13.57;;;6.53;;
47758;SDS011;33520;55.122;35.582;2023-02-01T04:03:58;16.92;;;6.30;;
47758;SDS011;33520;55.122;35.582;2023-02-01T04:06:25;14.05;;;7.30;;
47758;SDS011;33520;55.122;35.582;2023-02-01T04:08:53;18.08;;;8.15;;
47758;SDS011;33520;55.122;35.582;2023-02-01T04:11:19;12.25;;;6.30;;
47758;SDS011;33520;55.122;35.582;2023-02-01T04:13:46;11.48;;;5.95;;
47758;SDS011;33520;55.122;35.582;2023-02-01T04:16:12;13.35;;;6.53;;
47758;SDS011;33520;55.122;35.582;2023-02-01T04:18:38;14.18;;;6.85;;
47758;SDS011;33520;55.122;35.582;2023-02-01T04:21:05;12.13;;;5.60;;
47758;SDS011;33520;55.122;35.582;2023-02-01T04:23:31;12.05;;;6.22;;
47758;SDS011;33520;55.122;35.582;2023-02-01T04:26:01;13.35;;;6.38;;
47758;SDS011;33520;55.122;35.582;2023-02-01T04:28:28;13.52;;;6.22;;
47758;SDS011;33520;55.122;35.582;2023-02-01T04:30:55;13.48;;;6.40;;
47758;SDS011;33520;55.122;35.582;2023-02-01T04:33:21;13.90;;;7.22;;
47758;SDS011;33520;55.122;35.582;2023-02-01T04:35:48;13.40;;;6.90;;
47758;SDS011;33520;55.122;35.582;2023-02-01T04:38:14;12.40;;;6.45;;
47758;SDS011;33520;55.122;35.582;2023-02-01T04:40:41;13.45;;;6.60;;
47758;SDS011;33520;55.122;35.582;2023-02-01T04:43:07;13.35;;;6.22;;
47758;SDS011;33520;55.122;35.582;2023-02-01T04:45:33;12.98;;;6.53;;
47758;SDS011;33520;55.122;35.582;2023-02-01T04:48:00;14.65;;;6.93;;
47758;SDS011;33520;55.122;35.582;2023-02-01T04:50:27;17.02;;;7.65;;
47758;SDS011;33520;55.122;35.582;2023-02-01T04:52:53;16.63;;;7.35;;
47758;SDS011;33520;55.122;35.582;2023-02-01T04:55:19;16.80;;;7.88;;
47758;SDS011;33520;55.122;35.582;2023-02-01T04:57:46;14.38;;;6.88;;
47758;SDS011;33520;55.122;35.582;2023-02-01T05:00:12;14.98;;;7.35;;
47758;SDS011;33520;55.122;35.582;2023-02-01T05:05:05;15.88;;;7.85;;
47758;SDS011;33520;55.122;35.582;2023-02-01T05:07:31;15.95;;;7.32;;
47758;SDS011;33520;55.122;35.582;2023-02-01T05:09:57;17.73;;;7.68;;
47758;SDS011;33520;55.122;35.582;2023-02-01T05:12:24;14.13;;;8.32;;
47758;SDS011;33520;55.122;35.582;2023-02-01T05:15:09;13.85;;;7.57;;
47758;SDS011;33520;55.122;35.582;2023-02-01T05:17:35;16.17;;;7.60;;
47758;SDS011;33520;55.122;35.582;2023-02-01T05:20:02;16.42;;;7.82;;
47758;SDS011;33520;55.122;35.582;2023-02-01T05:24:54;16.42;;;6.82;;
47758;SDS011;33520;55.122;35.582;2023-02-01T05:27:21;16.23;;;8.18;;
47758;SDS011;33520;55.122;35.582;2023-02-01T05:29:47;18.52;;;9.30;;
47758;SDS011;33520;55.122;35.582;2023-02-01T05:32:13;17.45;;;8.57;;
47758;SDS011;33520;55.122;35.582;2023-02-01T05:34:40;18.30;;;7.85;;
47758;SDS011;33520;55.122;35.582;2023-02-01T05:37:06;23.52;;;9.30;;
47758;SDS011;33520;55.122;35.582;2023-02-01T05:39:32;20.65;;;9.65;;
47758;SDS011;33520;55.122;35.582;2023-02-01T05:41:59;20.52;;;9.65;;
47758;SDS011;33520;55.122;35.582;2023-02-01T05:44:25;20.90;;;8.88;;
47758;SDS011;33520;55.122;35.582;2023-02-01T05:46:51;19.98;;;8.93;;
47758;SDS011;33520;55.122;35.582;2023-02-01T05:49:18;22.15;;;9.73;;
47758;SDS011;33520;55.122;35.582;2023-02-01T05:51:44;19.10;;;8.93;;
47758;SDS011;33520;55.122;35.582;2023-02-01T05:54:11;23.67;;;9.48;;
47758;SDS011;33520;55.122;35.582;2023-02-01T05:56:37;22.10;;;9.93;;
47758;SDS011;33520;55.122;35.582;2023-02-01T05:59:03;24.55;;;10.15;;
47758;SDS011;33520;55.122;35.582;2023-02-01T06:01:29;27.05;;;10.18;;
47758;SDS011;33520;55.122;35.582;2023-02-01T06:03:56;22.70;;;9.13;;
47758;SDS011;33520;55.122;35.582;2023-02-01T06:06:22;19.98;;;8.95;;
47758;SDS011;33520;55.122;35.582;2023-02-01T06:08:48;26.60;;;11.38;;
47758;SDS011;33520;55.122;35.582;2023-02-01T06:11:14;25.52;;;10.65;;
47758;SDS011;33520;55.122;35.582;2023-02-01T06:13:41;24.77;;;10.95;;
47758;SDS011;33520;55.122;35.582;2023-02-01T06:16:07;22.42;;;10.93;;
47758;SDS011;33520;55.122;35.582;2023-02-01T06:18:34;23.52;;;10.52;;
47758;SDS011;33520;55.122;35.582;2023-02-01T06:21:01;26.20;;;11.23;;
47758;SDS011;33520;55.122;35.582;2023-02-01T06:23:28;26.70;;;10.52;;
47758;SDS011;33520;55.122;35.582;2023-02-01T06:25:59;27.30;;;11.23;;
47758;SDS011;33520;55.122;35.582;2023-02-01T06:28:30;24.00;;;11.05;;
47758;SDS011;33520;55.122;35.582;2023-02-01T06:30:57;24.13;;;10.98;;
47758;SDS011;33520;55.122;35.582;2023-02-01T06:33:24;25.08;;;9.55;;
47758;SDS011;33520;55.122;35.582;2023-02-01T06:35:57;23.27;;;10.85;;
47758;SDS011;33520;55.122;35.582;2023-02-01T06:38:24;26.00;;;11.23;;
47758;SDS011;33520;55.122;35.582;2023-02-01T06:40:52;27.55;;;10.73;;
47758;SDS011;33520;55.122;35.582;2023-02-01T06:43:19;22.48;;;10.57;;
47758;SDS011;33520;55.122;35.582;2023-02-01T06:45:46;27.90;;;10.63;;
47758;SDS011;33520;55.122;35.582;2023-02-01T06:48:13;25.08;;;9.95;;
47758;SDS011;33520;55.122;35.582;2023-02-01T06:50:39;25.33;;;10.63;;
47758;SDS011;33520;55.122;35.582;2023-02-01T06:53:05;25.45;;;10.82;;
47758;SDS011;33520;55.122;35.582;2023-02-01T06:55:32;25.42;;;10.50;;
47758;SDS011;33520;55.122;35.582;2023-02-01T06:57:58;24.50;;;9.90;;
47758;SDS011;33520;55.122;35.582;2023-02-01T07:00:25;28.48;;;11.10;;
47758;SDS011;33520;55.122;35.582;2023-02-01T07:02:51;24.88;;;9.90;;
47758;SDS011;33520;55.122;35.582;2023-02-01T07:05:17;26.67;;;11.70;;
47758;SDS011;33520;55.122;35.582;2023-02-01T07:07:44;26.95;;;10.63;;
47758;SDS011;33520;55.122;35.582;2023-02-01T07:10:10;26.17;;;11.00;;
47758;SDS011;33520;55.122;35.582;2023-02-01T07:12:37;26.08;;;9.52;;
47758;SDS011;33520;55.122;35.582;2023-02-01T07:15:03;25.58;;;10.68;;
47758;SDS011;33520;55.122;35.582;2023-02-01T07:17:31;26.98;;;11.68;;
47758;SDS011;33520;55.122;35.582;2023-02-01T07:19:57;26.90;;;9.82;;
47758;SDS011;33520;55.122;35.582;2023-02-01T07:22:27;27.67;;;10.40;;
47758;SDS011;33520;55.122;35.582;2023-02-01T07:24:54;27.52;;;10.88;;
47758;SDS011;33520;55.122;35.582;2023-02-01T07:29:50;26.13;;;9.73;;
47758;SDS011;33520;55.122;35.582;2023-02-01T07:32:17;23.60;;;9.43;;
47758;SDS011;33520;55.122;35.582;2023-02-01T07:37:10;24.90;;;8.77;;
47758;SDS011;33520;55.122;35.582;2023-02-01T07:39:37;23.10;;;9.73;;
47758;SDS011;33520;55.122;35.582;2023-02-01T07:42:03;29.13;;;10.93;;
47758;SDS011;33520;55.122;35.582;2023-02-01T07:44:29;24.13;;;9.82;;
47758;SDS011;33520;55.122;35.582;2023-02-01T07:46:56;23.70;;;10.68;;
47758;SDS011;33520;55.122;35.582;2023-02-01T07:49:22;22.48;;;10.32;;
47758;SDS011;33520;55.122;35.582;2023-02-01T07:51:48;24.60;;;10.02;;
47758;SDS011;33520;55.122;35.582;2023-02-01T07:54:16;26.52;;;10.30;;
47758;SDS011;33520;55.122;35.582;2023-02-01T07:56:43;26.48;;;9.90;;
47758;SDS011;33520;55.122;35.582;2023-02-01T07:59:09;26.50;;;11.15;;
47758;SDS011;33520;55.122;35.582;2023-02-01T08:01:36;26.98;;;9.82;;
47758;SDS011;33520;55.122;35.582;2023-02-01T08:04:02;25.88;;;11.00;;
47758;SDS011;33520;55.122;35.582;2023-02-01T08:06:30;26.45;;;11.95;;
47758;SDS011;33520;55.122;35.582;2023-02-01T08:08:57;21.50;;;9.60;;
47758;SDS011;33520;55.122;35.582;2023-02-01T08:11:24;32.03;;;10.95;;
47758;SDS011;33520;55.122;35.582;2023-02-01T08:13:51;28.27;;;10.32;;
47758;SDS011;33520;55.122;35.582;2023-02-01T08:16:18;29.15;;;11.15;;
47758;SDS011;33520;55.122;35.582;2023-02-01T08:18:45;24.33;;;9.48;;
47758;SDS011;33520;55.122;35.582;2023-02-01T08:23:39;27.58;;;10.05;;
47758;SDS011;33520;55.122;35.582;2023-02-01T08:26:07;23.52;;;11.45;;
47758;SDS011;33520;55.122;35.582;2023-02-01T08:28:37;26.42;;;11.25;;
47758;SDS011;33520;55.122;35.582;2023-02-01T08:31:05;29.52;;;11.68;;
47758;SDS011;33520;55.122;35.582;2023-02-01T08:33:35;27.27;;;10.48;;
47758;SDS011;33520;55.122;35.582;2023-02-01T08:36:04;25.52;;;10.77;;
47758;SDS011;33520;55.122;35.582;2023-02-01T08:38:31;22.65;;;10.02;;
47758;SDS011;33520;55.122;35.582;2023-02-01T08:40:57;24.63;;;9.75;;
47758;SDS011;33520;55.122;35.582;2023-02-01T08:43:24;25.95;;;10.98;;
47758;SDS011;33520;55.122;35.582;2023-02-01T08:45:50;22.98;;;11.13;;
47758;SDS011;33520;55.122;35.582;2023-02-01T08:48:19;25.70;;;10.70;;
47758;SDS011;33520;55.122;35.582;2023-02-01T08:50:45;22.85;;;11.23;;
47758;SDS011;33520;55.122;35.582;2023-02-01T08:53:12;28.95;;;11.85;;
47758;SDS011;33520;55.122;35.582;2023-02-01T08:55:39;32.53;;;12.20;;
47758;SDS011;33520;55.122;35.582;2023-02-01T08:58:06;27.25;;;10.38;;
47758;SDS011;33520;55.122;35.582;2023-02-01T09:00:33;28.05;;;11.70;;
47758;SDS011;33520;55.122;35.582;2023-02-01T09:02:59;27.60;;;10.43;;
47758;SDS011;33520;55.122;35.582;2023-02-01T09:05:25;23.77;;;10.48;;
47758;SDS011;33520;55.122;35.582;2023-02-01T09:07:53;24.83;;;11.50;;
47758;SDS011;33520;55.122;35.582;2023-02-01T09:12:46;26.48;;;11.00;;
47758;SDS011;33520;55.122;35.582;2023-02-01T09:15:12;24.58;;;10.55;;
47758;SDS011;33520;55.122;35.582;2023-02-01T09:17:38;23.65;;;9.32;;
47758;SDS011;33520;55.122;35.582;2023-02-01T09:20:07;24.23;;;10.77;;
47758;SDS011;33520;55.122;35.582;2023-02-01T09:22:35;21.15;;;10.07;;
47758;SDS011;33520;55.122;35.582;2023-02-01T09:25:01;23.50;;;9.93;;
47758;SDS011;33520;55.122;35.582;2023-02-01T09:27:28;20.98;;;9.82;;
47758;SDS011;33520;55.122;35.582;2023-02-01T09:29:55;23.35;;;10.30;;
47758;SDS011;33520;55.122;35.582;2023-02-01T09:32:21;24.00;;;9.80;;
47758;SDS011;33520;55.122;35.582;2023-02-01T09:34:52;20.00;;;8.68;;
47758;SDS011;33520;55.122;35.582;2023-02-01T09:37:19;20.75;;;8.75;;
47758;SDS011;33520;55.122;35.582;2023-02-01T09:39:45;19.10;;;9.35;;
47758;SDS011;33520;55.122;35.582;2023-02-01T09:47:35;21.80;;;9.50;;
47758;SDS011;33520;55.122;35.582;2023-02-01T09:50:11;19.70;;;9.18;;
47758;SDS011;33520;55.122;35.582;2023-02-01T09:52:52;21.13;;;8.65;;
47758;SDS011;33520;55.122;35.582;2023-02-01T09:55:31;17.70;;;8.63;;
47758;SDS011;33520;55.122;35.582;2023-02-01T09:58:01;18.25;;;8.95;;
47758;SDS011;33520;55.122;35.582;2023-02-01T10:00:50;17.20;;;8.88;;
47758;SDS011;33520;55.122;35.582;2023-02-01T10:03:18;18.20;;;9.35;;
47758;SDS011;33520;55.122;35.582;2023-02-01T10:05:54;17.35;;;7.80;;
47758;SDS011;33520;55.122;35.582;2023-02-01T10:12:00;17.25;;;8.75;;
47758;SDS011;33520;55.122;35.582;2023-02-01T10:25:26;18.90;;;9.38;;
47758;SDS011;33520;55.122;35.582;2023-02-01T10:27:54;17.40;;;8.90;;
47758;SDS011;33520;55.122;35.582;2023-02-01T10:30:25;18.27;;;8.85;;
47758;SDS011;33520;55.122;35.582;2023-02-01T10:33:18;16.02;;;8.73;;
47758;SDS011;33520;55.122;35.582;2023-02-01T10:35:49;16.60;;;7.85;;
47758;SDS011;33520;55.122;35.582;2023-02-01T10:38:24;15.98;;;8.05;;
47758;SDS011;33520;55.122;35.582;2023-02-01T10:40:53;15.15;;;8.38;;
47758;SDS011;33520;55.122;35.582;2023-02-01T10:43:21;13.88;;;6.60;;
47758;SDS011;33520;55.122;35.582;2023-02-01T10:45:48;13.82;;;7.18;;
47758;SDS011;33520;55.122;35.582;2023-02-01T10:48:14;13.38;;;7.32;;
47758;SDS011;33520;55.122;35.582;2023-02-01T10:50:44;13.68;;;7.15;;
47758;SDS011;33520;55.122;35.582;2023-02-01T10:53:23;17.23;;;7.78;;
47758;SDS011;33520;55.122;35.582;2023-02-01T10:56:09;12.07;;;6.53;;
47758;SDS011;33520;55.122;35.582;2023-02-01T10:58:43;14.20;;;7.18;;
47758;SDS011;33520;55.122;35.582;2023-02-01T11:01:17;13.90;;;6.72;;
47758;SDS011;33520;55.122;35.582;2023-02-01T11:04:02;12.48;;;6.40;;
47758;SDS011;33520;55.122;35.582;2023-02-01T11:06:32;14.25;;;6.85;;
47758;SDS011;33520;55.122;35.582;2023-02-01T11:11:59;12.85;;;6.97;;
47758;SDS011;33520;55.122;35.582;2023-02-01T11:17:02;15.82;;;7.88;;
47758;SDS011;33520;55.122;35.582;2023-02-01T11:19:57;13.48;;;7.75;;
47758;SDS011;33520;55.122;35.582;2023-02-01T11:22:28;14.25;;;7.20;;
47758;SDS011;33520;55.122;35.582;2023-02-01T11:27:23;17.93;;;8.70;;
47758;SDS011;33520;55.122;35.582;2023-02-01T11:29:51;14.48;;;7.28;;
47758;SDS011;33520;55.122;35.582;2023-02-01T11:32:20;15.23;;;7.03;;
47758;SDS011;33520;55.122;35.582;2023-02-01T11:34:52;15.15;;;8.07;;
47758;SDS011;33520;55.122;35.582;2023-02-01T11:39:58;16.27;;;7.93;;
47758;SDS011;33520;55.122;35.582;2023-02-01T11:42:26;16.45;;;8.50;;
47758;SDS011;33520;55.122;35.582;2023-02-01T11:47:46;17.17;;;8.02;;
47758;SDS011;33520;55.122;35.582;2023-02-01T11:50:19;19.50;;;8.30;;
47758;SDS011;33520;55.122;35.582;2023-02-01T11:58:36;20.00;;;8.40;;
47758;SDS011;33520;55.122;35.582;2023-02-01T12:01:12;20.15;;;9.60;;
47758;SDS011;33520;55.122;35.582;2023-02-01T12:14:42;19.27;;;8.10;;
47758;SDS011;33520;55.122;35.582;2023-02-01T12:22:57;15.43;;;7.95;;
47758;SDS011;33520;55.122;35.582;2023-02-01T12:42:49;15.93;;;7.70;;
47758;SDS011;33520;55.122;35.582;2023-02-01T12:45:44;21.08;;;9.00;;
47758;SDS011;33520;55.122;35.582;2023-02-01T12:51:08;18.42;;;9.85;;
47758;SDS011;33520;55.122;35.582;2023-02-01T12:56:31;23.17;;;12.18;;
47758;SDS011;33520;55.122;35.582;2023-02-01T12:58:59;21.30;;;10.95;;
47758;SDS011;33520;55.122;35.582;2023-02-01T13:01:34;17.80;;;8.05;;
47758;SDS011;33520;55.122;35.582;2023-02-01T13:11:54;19.83;;;9.90;;
47758;SDS011;33520;55.122;35.582;2023-02-01T13:16:58;21.92;;;10.57;;
47758;SDS011;33520;55.122;35.582;2023-02-01T13:19:28;20.60;;;10.18;;
47758;SDS011;33520;55.122;35.582;2023-02-01T13:21:57;20.00;;;9.05;;
47758;SDS011;33520;55.122;35.582;2023-02-01T13:24:39;18.08;;;8.50;;
47758;SDS011;33520;55.122;35.582;2023-02-01T13:27:14;20.02;;;9.23;;
47758;SDS011;33520;55.122;35.582;2023-02-01T13:29:45;22.02;;;9.23;;
47758;SDS011;33520;55.122;35.582;2023-02-01T13:35:23;21.05;;;9.43;;
47758;SDS011;33520;55.122;35.582;2023-02-01T13:40:37;16.73;;;7.93;;
47758;SDS011;33520;55.122;35.582;2023-02-01T13:45:46;20.55;;;8.30;;
47758;SDS011;33520;55.122;35.582;2023-02-01T13:48:24;21.27;;;9.80;;
47758;SDS011;33520;55.122;35.582;2023-02-01T13:50:55;19.60;;;9.70;;
47758;SDS011;33520;55.122;35.582;2023-02-01T13:53:30;20.13;;;9.55;;
47758;SDS011;33520;55.122;35.582;2023-02-01T13:56:18;16.75;;;8.07;;
47758;SDS011;33520;55.122;35.582;2023-02-01T13:58:46;20.77;;;9.15;;
47758;SDS011;33520;55.122;35.582;2023-02-01T14:03:52;19.63;;;8.48;;
47758;SDS011;33520;55.122;35.582;2023-02-01T14:11:47;18.23;;;7.70;;
47758;SDS011;33520;55.122;35.582;2023-02-01T14:16:43;17.67;;;8.40;;
47758;SDS011;33520;55.122;35.582;2023-02-01T14:19:31;18.17;;;8.17;;
47758;SDS011;33520;55.122;35.582;2023-02-01T14:21:59;14.80;;;8.10;;
47758;SDS011;33520;55.122;35.582;2023-02-01T14:24:28;17.17;;;8.15;;
47758;SDS011;33520;55.122;35.582;2023-02-01T14:26:59;17.95;;;8.05;;
47758;SDS011;33520;55.122;35.582;2023-02-01T14:32:02;15.30;;;7.90;;
47758;SDS011;33520;55.122;35.582;2023-02-01T14:40:00;15.25;;;6.20;;
47758;SDS011;33520;55.122;35.582;2023-02-01T14:42:42;14.00;;;6.88;;
47758;SDS011;33520;55.122;35.582;2023-02-01T14:50:34;16.67;;;7.15;;
47758;SDS011;33520;55.122;35.582;2023-02-01T14:53:10;14.23;;;6.90;;
47758;SDS011;33520;55.122;35.582;2023-02-01T14:58:36;17.65;;;6.88;;
47758;SDS011;33520;55.122;35.582;2023-02-01T15:01:23;16.30;;;7.57;;
47758;SDS011;33520;55.122;35.582;2023-02-01T15:04:05;18.63;;;7.72;;
47758;SDS011;33520;55.122;35.582;2023-02-01T15:06:42;17.00;;;7.10;;
47758;SDS011;33520;55.122;35.582;2023-02-01T15:12:04;16.27;;;6.80;;
47758;SDS011;33520;55.122;35.582;2023-02-01T15:14:33;18.25;;;8.05;;
47758;SDS011;33520;55.122;35.582;2023-02-01T15:17:01;18.13;;;8.35;;
47758;SDS011;33520;55.122;35.582;2023-02-01T15:19:28;19.65;;;7.68;;
47758;SDS011;33520;55.122;35.582;2023-02-01T15:21:57;19.42;;;7.47;;
47758;SDS011;33520;55.122;35.582;2023-02-01T15:24:28;18.67;;;8.40;;
47758;SDS011;33520;55.122;35.582;2023-02-01T15:26:56;19.00;;;8.00;;
47758;SDS011;33520;55.122;35.582;2023-02-01T15:29:29;19.40;;;8.65;;
47758;SDS011;33520;55.122;35.582;2023-02-01T15:31:58;19.33;;;8.60;;
47758;SDS011;33520;55.122;35.582;2023-02-01T15:34:43;19.95;;;8.75;;
47758;SDS011;33520;55.122;35.582;2023-02-01T15:37:14;18.35;;;7.93;;
47758;SDS011;33520;55.122;35.582;2023-02-01T15:42:57;19.05;;;7.90;;
47758;SDS011;33520;55.122;35.582;2023-02-01T15:45:25;21.60;;;9.13;;
47758;SDS011;33520;55.122;35.582;2023-02-01T15:47:55;18.40;;;8.15;;
47758;SDS011;33520;55.122;35.582;2023-02-01T15:50:22;22.50;;;8.98;;
47758;SDS011;33520;55.122;35.582;2023-02-01T15:52:50;18.73;;;9.45;;
47758;SDS011;33520;55.122;35.582;2023-02-01T15:55:35;20.52;;;8.75;;
47758;SDS011;33520;55.122;35.582;2023-02-01T15:58:05;21.77;;;7.70;;
47758;SDS011;33520;55.122;35.582;2023-02-01T16:00:40;22.50;;;9.05;;
47758;SDS011;33520;55.122;35.582;2023-02-01T16:03:23;21.00;;;8.95;;
47758;SDS011;33520;55.122;35.582;2023-02-01T16:06:08;19.05;;;8.63;;
47758;SDS011;33520;55.122;35.582;2023-02-01T16:08:36;18.05;;;8.63;;
47758;SDS011;33520;55.122;35.582;2023-02-01T16:13:35;19.50;;;8.45;;
47758;SDS011;33520;55.122;35.582;2023-02-01T16:16:01;21.33;;;8.63;;
47758;SDS011;33520;55.122;35.582;2023-02-01T16:18:29;23.08;;;7.88;;
47758;SDS011;33520;55.122;35.582;2023-02-01T16:20:55;18.05;;;8.70;;
47758;SDS011;33520;55.122;35.582;2023-02-01T16:23:21;20.20;;;9.10;;
47758;SDS011;33520;55.122;35.582;2023-02-01T16:25:47;19.05;;;8.90;;
47758;SDS011;33520;55.122;35.582;2023-02-01T16:28:13;19.80;;;8.57;;
47758;SDS011;33520;55.122;35.582;2023-02-01T16:30:39;21.52;;;8.27;;
47758;SDS011;33520;55.122;35.582;2023-02-01T16:33:05;20.55;;;8.57;;
47758;SDS011;33520;55.122;35.582;2023-02-01T16:35:37;20.85;;;9.23;;
47758;SDS011;33520;55.122;35.582;2023-02-01T16:38:04;20.55;;;9.15;;
47758;SDS011;33520;55.122;35.582;2023-02-01T16:40:42;18.90;;;8.43;;
47758;SDS011;33520;55.122;35.582;2023-02-01T16:43:12;20.60;;;8.18;;
47758;SDS011;33520;55.122;35.582;2023-02-01T16:45:42;19.48;;;8.80;;
47758;SDS011;33520;55.122;35.582;2023-02-01T16:48:18;23.63;;;7.60;;
47758;SDS011;33520;55.122;35.582;2023-02-01T16:51:13;20.00;;;8.48;;
47758;SDS011;33520;55.122;35.582;2023-02-01T16:53:40;21.45;;;8.50;;
47758;SDS011;33520;55.122;35.582;2023-02-01T16:56:13;17.20;;;8.65;;
47758;SDS011;33520;55.122;35.582;2023-02-01T16:58:41;23.63;;;8.75;;
47758;SDS011;33520;55.122;35.582;2023-02-01T17:01:09;20.73;;;8.48;;
47758;SDS011;33520;55.122;35.582;2023-02-01T17:03:40;17.25;;;7.70;;
47758;SDS011;33520;55.122;35.582;2023-02-01T17:06:07;20.30;;;8.73;;
47758;SDS011;33520;55.122;35.582;2023-02-01T17:08:36;17.77;;;8.73;;
47758;SDS011;33520;55.122;35.582;2023-02-01T17:11:07;19.15;;;7.40;;
47758;SDS011;33520;55.122;35.582;2023-02-01T17:13:34;24.42;;;8.30;;
47758;SDS011;33520;55.122;35.582;2023-02-01T17:16:19;19.77;;;7.95;;
47758;SDS011;33520;55.122;35.582;2023-02-01T17:18:54;21.95;;;8.00;;
47758;SDS011;33520;55.122;35.582;2023-02-01T17:21:39;15.48;;;7.25;;
47758;SDS011;33520;55.122;35.582;2023-02-01T17:24:09;24.25;;;8.43;;
47758;SDS011;33520;55.122;35.582;2023-02-01T17:26:40;27.50;;;8.75;;
47758;SDS011;33520;55.122;35.582;2023-02-01T17:29:07;19.65;;;8.50;;
47758;SDS011;33520;55.122;35.582;2023-02-01T17:31:35;25.77;;;9.15;;
47758;SDS011;33520;55.122;35.582;2023-02-01T17:34:03;17.02;;;8.23;;
47758;SDS011;33520;55.122;35.582;2023-02-01T17:36:30;17.77;;;7.75;;
47758;SDS011;33520;55.122;35.582;2023-02-01T17:38:56;16.35;;;7.85;;
47758;SDS011;33520;55.122;35.582;2023-02-01T17:41:23;17.83;;;7.90;;